Durham, Kansas
Current Conditions -  °F | °C
As of 6:35 PM on Saturday 20 Dec 2014 (Local Time) from KEWK Reporting Station
Overcast Overcast  
Wind Chill: 35°   Ceiling: 1700
Heat Index: 43°   Visibility: 10mi
Dew Point: 32°   Wind: 18mph
Humidity: 66%   Direction: 210°SSW
Pressure: 30.11"   Gusts: 28mph
Location:  38.49°N, 97.23°W
Report Text: KEWK 210035Z AUTO 21016G24KT 10SM OVC017 06/00 A3011 RMK AO1
Loading
Personal Weather Stations






























Interactive Weather Map New forecast layout! Learn more

10-Day Weather Forecast

Advertisements
Track Severe Weather on mobile